createdAt,value
2018-03-22T00:01:02.401Z,1.06
2018-03-22T00:03:30.936Z,1.06
2018-03-22T00:05:59.065Z,1.04
2018-03-22T00:08:26.691Z,1.05
2018-03-22T00:10:57.696Z,1.08
2018-03-22T00:13:25.460Z,1.00
2018-03-22T00:15:53.192Z,0.91
2018-03-22T00:18:21.002Z,0.91
2018-03-22T00:20:48.916Z,0.81
2018-03-22T00:23:16.770Z,0.82
2018-03-22T00:25:44.602Z,0.59
2018-03-22T00:28:12.412Z,0.75
2018-03-22T00:30:39.993Z,0.64
2018-03-22T00:33:07.596Z,0.73
2018-03-22T00:35:35.457Z,0.66
2018-03-22T00:38:05.875Z,0.55
2018-03-22T00:40:33.957Z,0.56
2018-03-22T00:43:01.709Z,0.61
2018-03-22T00:45:30.477Z,0.61
2018-03-22T00:47:58.064Z,0.56
2018-03-22T00:50:26.677Z,0.48
2018-03-22T00:52:55.098Z,0.24
2018-03-22T00:55:25.087Z,0.30
2018-03-22T00:57:53.760Z,0.12
2018-03-22T01:00:21.335Z,0.28
2018-03-22T01:02:48.869Z,0.09
2018-03-22T01:05:16.457Z,0.12
2018-03-22T01:07:44.020Z,0.24
2018-03-22T01:10:11.725Z,0.34
2018-03-22T01:12:39.287Z,0.33
2018-03-22T01:15:06.855Z,0.15
2018-03-22T01:17:34.395Z,0.26
2018-03-22T01:20:02.008Z,0.18
2018-03-22T01:22:29.561Z,0.16
2018-03-22T01:24:57.085Z,0.23
2018-03-22T01:27:24.659Z,0.30
2018-03-22T01:29:52.188Z,0.26
2018-03-22T01:32:19.764Z,0.14
2018-03-22T01:34:47.345Z,0.15
2018-03-22T01:37:14.923Z,0.15
2018-03-22T01:39:42.451Z,0.16
2018-03-22T01:42:10.021Z,0.14
2018-03-22T01:44:37.935Z,0.12
2018-03-22T01:47:05.496Z,-0.13
2018-03-22T01:49:33.060Z,-0.25
2018-03-22T01:52:00.640Z,-0.11
2018-03-22T01:54:28.305Z,0.01
2018-03-22T01:56:55.857Z,0.07
2018-03-22T01:59:23.389Z,0.13
2018-03-22T02:01:50.997Z,0.04
2018-03-22T02:04:18.500Z,-0.05
2018-03-22T02:06:46.060Z,0.05
2018-03-22T02:09:13.607Z,-0.13
2018-03-22T02:11:41.186Z,-0.14
2018-03-22T02:14:08.717Z,-0.08
2018-03-22T02:16:36.283Z,-0.33
2018-03-22T02:19:03.810Z,-0.10
2018-03-22T02:21:31.371Z,-0.04
2018-03-22T02:23:58.915Z,0.01
2018-03-22T02:26:26.460Z,-0.05
2018-03-22T02:28:54.037Z,-0.03
2018-03-22T02:31:21.561Z,-0.19
2018-03-22T02:33:49.120Z,-0.08
2018-03-22T02:36:16.669Z,-0.30
2018-03-22T02:38:44.249Z,-0.14
2018-03-22T02:41:11.768Z,0.03
2018-03-22T02:43:39.320Z,0.02
2018-03-22T02:46:06.850Z,0.10
2018-03-22T02:48:34.423Z,-0.07
2018-03-22T02:51:05.167Z,0.10
2018-03-22T02:53:33.381Z,0.08
2018-03-22T02:56:02.090Z,-0.09
2018-03-22T02:58:30.004Z,-0.02
2018-03-22T03:00:57.606Z,0.02
2018-03-22T03:03:25.171Z,0.02
2018-03-22T03:05:52.896Z,0.10
2018-03-22T03:08:20.608Z,0.07
2018-03-22T03:10:48.261Z,0.05
2018-03-22T03:13:15.812Z,0.02
2018-03-22T03:15:43.513Z,0.12
2018-03-22T03:18:11.084Z,-0.08
2018-03-22T03:20:38.624Z,-0.08
2018-03-22T03:23:07.484Z,-0.18
2018-03-22T03:25:35.012Z,-0.13
2018-03-22T03:28:02.573Z,0.01
2018-03-22T03:30:30.172Z,0.06
2018-03-22T03:32:57.740Z,0.02
2018-03-22T03:35:25.284Z,-0.08
2018-03-22T03:37:52.844Z,-0.03
2018-03-22T03:40:20.832Z,-0.04
2018-03-22T03:42:48.388Z,0.09
2018-03-22T03:45:15.956Z,0.17
2018-03-22T03:47:43.496Z,0.19
2018-03-22T03:50:11.028Z,0.09
2018-03-22T03:52:38.717Z,0.15
2018-03-22T03:55:06.249Z,0.14
2018-03-22T03:57:33.769Z,0.16
2018-03-22T04:00:01.332Z,0.17
2018-03-22T04:02:28.861Z,0.15
2018-03-22T04:04:56.412Z,0.17
2018-03-22T04:07:23.943Z,0.26
2018-03-22T04:09:51.541Z,0.27
2018-03-22T04:12:19.098Z,0.26
2018-03-22T04:14:46.656Z,0.21
2018-03-22T04:17:14.188Z,0.17
2018-03-22T04:19:41.776Z,0.15
2018-03-22T04:22:09.337Z,0.29
2018-03-22T04:24:36.888Z,0.26
2018-03-22T04:27:04.417Z,0.10
2018-03-22T04:29:31.981Z,0.21
2018-03-22T04:31:59.547Z,0.21
2018-03-22T04:34:27.099Z,0.27
2018-03-22T04:36:54.641Z,0.29
2018-03-22T04:39:22.195Z,0.26
2018-03-22T04:41:49.720Z,0.27
2018-03-22T04:44:17.268Z,0.38
2018-03-22T04:46:44.797Z,0.33
2018-03-22T04:49:12.487Z,0.31
2018-03-22T04:51:40.046Z,0.39
2018-03-22T04:54:07.683Z,0.29
2018-03-22T04:56:35.230Z,0.44
2018-03-22T04:59:02.783Z,0.44
2018-03-22T05:01:30.308Z,0.50
2018-03-22T05:03:57.876Z,0.43
2018-03-22T05:06:25.515Z,0.33
2018-03-22T05:08:53.086Z,0.34
2018-03-22T05:11:20.604Z,0.44
2018-03-22T05:13:48.167Z,0.49
2018-03-22T05:16:15.688Z,0.32
2018-03-22T05:18:43.259Z,0.46
2018-03-22T05:21:10.794Z,0.53
2018-03-22T05:23:39.317Z,0.51
2018-03-22T05:26:06.847Z,0.48
2018-03-22T05:28:34.404Z,0.47
2018-03-22T05:31:01.949Z,0.42
2018-03-22T05:33:29.474Z,0.44
2018-03-22T05:35:57.038Z,0.31
2018-03-22T05:38:24.569Z,0.38
2018-03-22T05:40:52.138Z,0.48
2018-03-22T05:43:19.668Z,0.42
2018-03-22T05:45:47.900Z,0.44
2018-03-22T05:48:16.700Z,0.40
2018-03-22T05:50:45.118Z,0.44
2018-03-22T05:53:13.473Z,0.42
2018-03-22T05:55:44.779Z,0.43
2018-03-22T05:58:14.574Z,0.49
2018-03-22T06:00:42.562Z,0.45
2018-03-22T06:03:10.578Z,0.61
2018-03-22T06:05:38.288Z,0.66
2018-03-22T06:08:06.089Z,0.68
2018-03-22T06:10:35.380Z,0.67
2018-03-22T06:13:03.432Z,0.65
2018-03-22T06:15:31.389Z,0.71
2018-03-22T06:17:58.947Z,0.73
2018-03-22T06:20:26.506Z,0.83
2018-03-22T06:22:54.036Z,0.82
2018-03-22T06:25:21.628Z,0.75
2018-03-22T06:27:49.161Z,0.79
2018-03-22T06:30:16.716Z,0.98
2018-03-22T06:32:44.252Z,1.08
2018-03-22T06:35:11.836Z,1.08
2018-03-22T06:37:39.476Z,1.10
2018-03-22T06:40:07.093Z,1.22
2018-03-22T06:42:34.721Z,1.18
2018-03-22T06:45:02.281Z,1.20
2018-03-22T06:47:29.798Z,1.24
2018-03-22T06:49:57.436Z,1.31
2018-03-22T06:52:24.959Z,1.28
2018-03-22T06:54:52.519Z,1.32
2018-03-22T06:57:20.046Z,1.18
2018-03-22T06:59:47.613Z,1.23
2018-03-22T07:02:15.127Z,1.38
2018-03-22T07:04:42.690Z,1.37
2018-03-22T07:07:10.221Z,1.48
2018-03-22T07:09:37.802Z,1.48
2018-03-22T07:12:08.305Z,1.47
2018-03-22T07:14:36.030Z,1.59
2018-03-22T07:17:04.455Z,1.68
2018-03-22T07:19:31.973Z,1.60
2018-03-22T07:21:59.528Z,1.77
2018-03-22T07:24:27.061Z,1.87
2018-03-22T07:26:54.644Z,1.90
2018-03-22T07:29:22.160Z,1.99
2018-03-22T07:31:49.716Z,2.03
2018-03-22T07:34:17.244Z,2.02
2018-03-22T07:36:44.807Z,1.94
2018-03-22T07:39:12.357Z,2.01
2018-03-22T07:41:39.917Z,2.16
2018-03-22T07:44:12.289Z,2.26
2018-03-22T07:46:39.845Z,2.18
2018-03-22T07:49:07.358Z,2.31
2018-03-22T07:51:34.920Z,2.25
2018-03-22T07:54:02.441Z,2.29
2018-03-22T07:56:30.008Z,2.31
2018-03-22T07:58:57.600Z,2.28
2018-03-22T08:01:25.170Z,1.96
2018-03-22T08:03:52.704Z,1.87
2018-03-22T08:06:20.260Z,2.15
2018-03-22T08:08:47.771Z,2.34
2018-03-22T08:11:15.473Z,2.30
2018-03-22T08:13:43.004Z,2.01
2018-03-22T08:16:10.583Z,2.18
2018-03-22T08:18:38.108Z,2.02
2018-03-22T08:21:05.662Z,1.99
2018-03-22T08:23:33.195Z,1.94
2018-03-22T08:26:00.848Z,1.98
2018-03-22T08:28:28.407Z,2.18
2018-03-22T08:30:55.959Z,2.25
2018-03-22T08:33:23.553Z,2.21
2018-03-22T08:35:55.101Z,2.24
2018-03-22T08:38:24.285Z,2.32
2018-03-22T08:40:55.511Z,2.30
2018-03-22T08:43:24.384Z,2.19
2018-03-22T08:45:52.463Z,2.18
2018-03-22T08:48:24.320Z,2.12
2018-03-22T08:50:54.925Z,2.34
2018-03-22T08:53:23.724Z,2.25
2018-03-22T08:55:52.353Z,2.11
2018-03-22T08:58:22.059Z,2.14
2018-03-22T09:00:49.728Z,2.16
2018-03-22T09:03:19.165Z,1.91
2018-03-22T09:05:47.554Z,1.82
2018-03-22T09:08:16.830Z,2.03
2018-03-22T09:10:45.994Z,1.87
2018-03-22T09:13:13.603Z,1.92
2018-03-22T09:15:45.014Z,1.89
2018-03-22T09:18:14.340Z,1.80
2018-03-22T09:20:43.272Z,1.78
2018-03-22T09:23:12.477Z,1.78
2018-03-22T09:25:40.052Z,1.75
2018-03-22T09:28:07.768Z,1.83
2018-03-22T09:30:38.145Z,1.77
2018-03-22T09:33:08.452Z,1.65
2018-03-22T09:35:36.322Z,1.48
2018-03-22T09:38:03.968Z,1.59
2018-03-22T09:40:31.536Z,1.62
2018-03-22T09:42:59.252Z,1.58
2018-03-22T09:45:28.326Z,1.57
2018-03-22T09:47:56.219Z,1.28
2018-03-22T09:50:23.775Z,1.37
2018-03-22T09:52:51.348Z,1.18
2018-03-22T09:55:18.951Z,1.29
2018-03-22T09:57:46.502Z,1.11
2018-03-22T10:00:14.032Z,1.10
2018-03-22T10:02:41.586Z,1.07
2018-03-22T10:05:09.121Z,1.29
2018-03-22T10:07:36.742Z,1.31
2018-03-22T10:10:04.272Z,1.41
2018-03-22T10:12:31.890Z,1.50
2018-03-22T10:14:59.412Z,1.47
2018-03-22T10:17:27.117Z,1.54
2018-03-22T10:19:56.021Z,1.70
2018-03-22T10:22:28.760Z,1.62
2018-03-22T10:25:00.808Z,1.59
2018-03-22T10:27:31.279Z,1.90
2018-03-22T10:30:02.308Z,1.95
2018-03-22T10:32:30.658Z,1.71
2018-03-22T10:35:00.243Z,1.77
2018-03-22T10:37:33.315Z,1.94
2018-03-22T10:40:02.575Z,1.96
2018-03-22T10:42:33.302Z,1.84
2018-03-22T10:45:03.501Z,1.94
2018-03-22T10:47:35.471Z,1.96
2018-03-22T10:50:04.372Z,1.75
2018-03-22T10:52:35.335Z,1.78
2018-03-22T10:55:06.664Z,1.81
2018-03-22T10:57:35.406Z,1.85
2018-03-22T11:00:04.542Z,1.89
2018-03-22T11:02:40.482Z,1.92
2018-03-22T11:05:08.142Z,1.96
2018-03-22T11:07:37.866Z,1.81
2018-03-22T11:10:06.419Z,2.03
2018-03-22T11:12:37.886Z,2.11
2018-03-22T11:15:06.992Z,1.93
2018-03-22T11:17:36.305Z,1.99
2018-03-22T11:20:05.656Z,1.96
2018-03-22T11:22:33.971Z,2.16
2018-03-22T11:25:02.763Z,2.19
2018-03-22T11:27:34.307Z,2.23
2018-03-22T11:30:01.888Z,2.23
2018-03-22T11:32:34.081Z,2.11
2018-03-22T11:35:05.798Z,2.12
2018-03-22T11:37:36.954Z,2.20
2018-03-22T11:40:05.103Z,2.12
2018-03-22T11:42:34.242Z,2.37
2018-03-22T11:45:03.111Z,2.35
2018-03-22T11:47:30.953Z,2.36
2018-03-22T11:49:58.883Z,2.40
2018-03-22T11:52:26.490Z,2.31
2018-03-22T11:54:54.056Z,2.28
2018-03-22T11:57:21.593Z,2.35
2018-03-22T11:59:49.146Z,2.33
2018-03-22T12:02:16.795Z,2.32
2018-03-22T12:04:44.597Z,2.26
2018-03-22T12:07:12.127Z,2.37
2018-03-22T12:09:39.681Z,2.36
2018-03-22T12:12:07.204Z,2.17
2018-03-22T12:14:34.768Z,2.32
2018-03-22T12:17:02.459Z,2.29
2018-03-22T12:19:30.014Z,2.25
2018-03-22T12:21:57.853Z,2.50
2018-03-22T12:24:25.415Z,2.41
2018-03-22T12:26:53.291Z,2.57
2018-03-22T12:29:20.896Z,2.39
2018-03-22T12:31:48.441Z,2.39
2018-03-22T12:34:16.003Z,2.43
2018-03-22T12:36:43.587Z,2.42
2018-03-22T12:39:11.149Z,2.37
2018-03-22T12:41:38.706Z,2.27
2018-03-22T12:44:06.265Z,2.40
2018-03-22T12:46:33.840Z,2.39
2018-03-22T12:49:01.391Z,2.42
2018-03-22T12:51:28.914Z,2.47
2018-03-22T12:53:56.487Z,2.34
2018-03-22T12:56:24.011Z,2.30
2018-03-22T12:58:51.565Z,2.28
2018-03-22T13:01:19.106Z,2.56
2018-03-22T13:03:46.655Z,2.54
2018-03-22T13:06:14.171Z,2.66
2018-03-22T13:08:41.751Z,2.46
2018-03-22T13:11:11.931Z,2.45
2018-03-22T13:13:39.736Z,2.48
2018-03-22T13:16:10.473Z,2.41
2018-03-22T13:18:40.184Z,2.49
2018-03-22T13:21:08.161Z,2.56
2018-03-22T13:23:35.708Z,2.58
2018-03-22T13:26:06.976Z,2.49
2018-03-22T13:28:37.336Z,2.57
2018-03-22T13:31:09.476Z,2.56
2018-03-22T13:33:39.017Z,2.55
2018-03-22T13:36:08.103Z,2.60
2018-03-22T13:38:40.466Z,2.72
2018-03-22T13:41:10.115Z,2.59
2018-03-22T13:43:44.442Z,2.66
2018-03-22T13:46:13.013Z,2.70
2018-03-22T13:48:41.616Z,2.60
2018-03-22T13:51:14.299Z,2.62
2018-03-22T13:53:45.420Z,2.64
2018-03-22T13:56:15.917Z,2.65
2018-03-22T13:58:50.097Z,2.68
2018-03-22T14:01:21.453Z,2.67
2018-03-22T14:03:51.738Z,2.67
2018-03-22T14:06:22.694Z,2.66
2018-03-22T14:08:52.479Z,2.70
2018-03-22T14:11:23.684Z,2.73
2018-03-22T14:13:53.651Z,2.82
2018-03-22T14:16:24.368Z,2.71
2018-03-22T14:18:55.269Z,2.90
2018-03-22T14:21:24.774Z,2.86
2018-03-22T14:23:53.601Z,2.75
2018-03-22T14:26:21.245Z,2.94
2018-03-22T14:28:51.784Z,2.77
2018-03-22T14:31:21.957Z,2.87
2018-03-22T14:33:52.435Z,2.75
2018-03-22T14:36:22.782Z,2.70
2018-03-22T14:38:52.092Z,2.75
2018-03-22T14:41:23.796Z,2.68
2018-03-22T14:43:53.317Z,2.77
2018-03-22T14:46:22.704Z,2.79
2018-03-22T14:48:52.353Z,2.67
2018-03-22T14:51:22.500Z,2.71
2018-03-22T14:53:52.341Z,2.69
2018-03-22T14:56:23.078Z,2.66
2018-03-22T14:58:53.585Z,2.69
2018-03-22T15:01:26.376Z,2.67
2018-03-22T15:03:55.470Z,2.73
2018-03-22T15:06:26.235Z,2.67
2018-03-22T15:08:55.690Z,2.70
2018-03-22T15:11:26.664Z,2.70
2018-03-22T15:13:56.045Z,2.74
2018-03-22T15:16:26.179Z,2.66
2018-03-22T15:18:54.226Z,2.81
2018-03-22T15:21:25.727Z,2.83
2018-03-22T15:23:55.348Z,2.83
2018-03-22T15:26:23.557Z,2.73
2018-03-22T15:28:53.952Z,2.80
2018-03-22T15:31:22.008Z,2.80
2018-03-22T15:33:54.729Z,2.90
2018-03-22T15:36:27.623Z,2.95
2018-03-22T15:38:57.192Z,3.04
2018-03-22T15:41:28.645Z,2.86
2018-03-22T15:43:56.682Z,2.86
2018-03-22T15:46:27.632Z,2.76
2018-03-22T15:48:58.349Z,2.84
2018-03-22T15:51:26.552Z,2.84
2018-03-22T15:53:56.804Z,2.95
2018-03-22T15:56:24.955Z,2.88
2018-03-22T15:58:55.509Z,2.89
2018-03-22T16:01:25.666Z,2.93
2018-03-22T16:03:57.966Z,3.00
2018-03-22T16:06:29.095Z,2.91
2018-03-22T16:08:58.484Z,3.08
2018-03-22T16:11:34.547Z,3.01
2018-03-22T16:14:04.938Z,3.03
2018-03-22T16:16:33.899Z,2.78
2018-03-22T16:19:01.815Z,2.78
2018-03-22T16:21:30.260Z,2.74
2018-03-22T16:24:00.565Z,2.85
2018-03-22T16:26:31.399Z,2.96
2018-03-22T16:28:59.912Z,2.96
2018-03-22T16:31:30.442Z,3.00
2018-03-22T16:33:58.137Z,2.83
2018-03-22T16:36:28.884Z,2.89
2018-03-22T16:38:58.028Z,2.95
2018-03-22T16:41:26.320Z,2.97
2018-03-22T16:43:54.931Z,3.01
2018-03-22T16:46:22.504Z,3.18
2018-03-22T16:48:53.304Z,3.18
2018-03-22T16:51:22.411Z,3.17
2018-03-22T16:53:51.574Z,3.23
2018-03-22T16:56:22.280Z,3.34
2018-03-22T16:58:49.979Z,3.27
2018-03-22T17:01:20.091Z,3.29
2018-03-22T17:03:50.942Z,3.14
2018-03-22T17:06:18.840Z,3.00
2018-03-22T17:08:46.531Z,2.98
2018-03-22T17:11:15.985Z,3.12
2018-03-22T17:13:45.028Z,3.14
2018-03-22T17:16:14.753Z,3.07
2018-03-22T17:18:42.373Z,2.98
2018-03-22T17:21:12.582Z,3.10
2018-03-22T17:23:40.216Z,3.21
2018-03-22T17:26:08.558Z,3.29
2018-03-22T17:28:36.245Z,3.17
2018-03-22T17:31:05.689Z,3.12
2018-03-22T17:33:36.445Z,3.18
2018-03-22T17:36:04.708Z,3.24
2018-03-22T17:38:36.226Z,3.45
2018-03-22T17:41:05.407Z,3.48
2018-03-22T17:43:32.996Z,3.53
2018-03-22T17:46:04.143Z,3.67
2018-03-22T17:48:32.539Z,3.79
2018-03-22T17:51:01.004Z,3.81
2018-03-22T17:53:30.316Z,3.81
2018-03-22T17:56:01.899Z,3.81
2018-03-22T17:58:30.536Z,3.89
2018-03-22T18:01:00.506Z,3.94
2018-03-22T18:03:28.441Z,3.93
2018-03-22T18:05:56.224Z,3.92
2018-03-22T18:08:25.972Z,3.93
2018-03-22T18:11:00.580Z,3.97
2018-03-22T18:13:28.525Z,3.97
2018-03-22T18:16:02.317Z,3.96
2018-03-22T18:18:30.119Z,4.03
2018-03-22T18:21:00.585Z,4.04
2018-03-22T18:23:30.835Z,4.05
2018-03-22T18:25:58.406Z,4.03
2018-03-22T18:28:28.793Z,4.05
2018-03-22T18:30:58.474Z,4.07
2018-03-22T18:33:29.260Z,4.09
2018-03-22T18:36:00.057Z,4.04
2018-03-22T18:38:29.278Z,4.09
2018-03-22T18:40:57.423Z,4.09
2018-03-22T18:43:25.115Z,4.07
2018-03-22T18:45:53.830Z,4.11
2018-03-22T18:48:22.520Z,4.13
2018-03-22T18:50:50.042Z,4.06
2018-03-22T18:53:20.128Z,4.09
2018-03-22T18:55:54.478Z,4.13
2018-03-22T18:58:22.050Z,4.16
2018-03-22T19:00:49.579Z,4.17
2018-03-22T19:03:17.144Z,4.14
2018-03-22T19:05:44.673Z,4.15
2018-03-22T19:08:12.242Z,4.12
2018-03-22T19:10:39.761Z,4.05
2018-03-22T19:13:07.311Z,4.13
2018-03-22T19:15:34.847Z,4.14
2018-03-22T19:18:02.419Z,4.21
2018-03-22T19:20:29.944Z,4.16
2018-03-22T19:22:57.528Z,4.17
2018-03-22T19:25:26.693Z,4.26
2018-03-22T19:27:54.578Z,4.20
2018-03-22T19:30:22.167Z,4.20
2018-03-22T19:32:49.716Z,4.25
2018-03-22T19:35:17.461Z,4.19
2018-03-22T19:37:45.171Z,4.15
2018-03-22T19:40:12.711Z,4.17
2018-03-22T19:42:40.288Z,4.24
2018-03-22T19:45:07.824Z,4.22
2018-03-22T19:47:35.390Z,4.22
2018-03-22T19:50:02.907Z,4.13
2018-03-22T19:52:30.795Z,4.11
2018-03-22T19:54:58.329Z,4.16
2018-03-22T19:57:26.076Z,4.20
2018-03-22T19:59:53.603Z,4.12
2018-03-22T20:02:21.201Z,4.21
2018-03-22T20:04:48.707Z,4.17
2018-03-22T20:07:17.908Z,4.21
2018-03-22T20:09:48.744Z,4.29
2018-03-22T20:12:17.302Z,4.28
2018-03-22T20:14:45.079Z,4.34
2018-03-22T20:17:17.190Z,4.28
2018-03-22T20:19:45.203Z,4.24
2018-03-22T20:22:17.310Z,4.29
2018-03-22T20:24:44.930Z,4.23
2018-03-22T20:27:12.967Z,4.25
2018-03-22T20:29:40.810Z,4.23
2018-03-22T20:32:08.332Z,4.27
2018-03-22T20:34:35.883Z,4.27
2018-03-22T20:37:04.397Z,4.14
2018-03-22T20:39:32.763Z,4.20
2018-03-22T20:42:00.382Z,4.15
2018-03-22T20:44:28.296Z,4.03
2018-03-22T20:46:56.024Z,3.88
2018-03-22T20:49:23.808Z,3.89
2018-03-22T20:51:51.359Z,4.03
2018-03-22T20:54:18.933Z,4.15
2018-03-22T20:56:46.464Z,4.20
2018-03-22T20:59:14.012Z,4.26
2018-03-22T21:01:41.539Z,4.30
2018-03-22T21:04:09.117Z,4.29
2018-03-22T21:06:36.646Z,4.20
2018-03-22T21:09:04.218Z,4.32
2018-03-22T21:11:31.769Z,4.39
2018-03-22T21:13:59.347Z,4.36
2018-03-22T21:16:26.879Z,4.38
2018-03-22T21:18:54.465Z,4.35
2018-03-22T21:21:21.992Z,4.40
2018-03-22T21:23:49.568Z,4.49
2018-03-22T21:26:17.106Z,4.49
2018-03-22T21:28:44.840Z,4.53
2018-03-22T21:31:12.388Z,4.39
2018-03-22T21:33:39.943Z,4.18
2018-03-22T21:36:07.475Z,4.37
2018-03-22T21:38:35.069Z,4.23
2018-03-22T21:41:02.624Z,4.36
2018-03-22T21:43:30.168Z,4.33
2018-03-22T21:45:57.690Z,4.33
2018-03-22T21:48:25.256Z,4.28
2018-03-22T21:50:52.855Z,4.36
2018-03-22T21:53:21.123Z,4.38
2018-03-22T21:55:51.156Z,4.39
2018-03-22T21:58:20.540Z,4.46
2018-03-22T22:00:50.518Z,4.44
2018-03-22T22:03:22.464Z,4.46
2018-03-22T22:05:51.349Z,4.50
2018-03-22T22:08:23.047Z,4.44
2018-03-22T22:10:53.718Z,4.47
2018-03-22T22:13:24.380Z,4.50
2018-03-22T22:15:53.730Z,4.48
2018-03-22T22:18:23.158Z,4.50
2018-03-22T22:20:52.619Z,4.53
2018-03-22T22:23:20.466Z,4.52
2018-03-22T22:25:51.618Z,4.53
2018-03-22T22:28:19.276Z,4.52
2018-03-22T22:30:47.420Z,4.47
2018-03-22T22:33:17.158Z,4.48
2018-03-22T22:35:44.817Z,4.52
2018-03-22T22:38:12.655Z,4.50
2018-03-22T22:40:40.797Z,4.52
2018-03-22T22:43:12.685Z,4.54
2018-03-22T22:45:41.548Z,4.58
2018-03-22T22:48:09.067Z,4.53
2018-03-22T22:50:37.612Z,4.61
2018-03-22T22:53:05.167Z,4.52
2018-03-22T22:55:33.372Z,4.55
2018-03-22T22:58:03.146Z,4.55
2018-03-22T23:00:31.099Z,4.58
2018-03-22T23:02:59.057Z,4.58
2018-03-22T23:05:26.628Z,4.56
2018-03-22T23:07:54.153Z,4.58
2018-03-22T23:10:22.221Z,4.58
2018-03-22T23:12:52.583Z,4.58
2018-03-22T23:15:21.472Z,4.61
2018-03-22T23:17:49.515Z,4.56
2018-03-22T23:20:17.924Z,4.53
2018-03-22T23:22:46.215Z,4.51
2018-03-22T23:25:14.387Z,4.35
2018-03-22T23:27:42.470Z,4.50
2018-03-22T23:30:10.657Z,4.63
2018-03-22T23:32:38.188Z,4.57
2018-03-22T23:35:06.619Z,4.57
2018-03-22T23:37:35.516Z,4.63
2018-03-22T23:40:03.724Z,4.59
2018-03-22T23:42:33.633Z,4.61
2018-03-22T23:45:01.559Z,4.61
2018-03-22T23:47:29.355Z,4.61
2018-03-22T23:49:57.335Z,4.61
2018-03-22T23:52:25.815Z,4.59
2018-03-22T23:54:53.756Z,4.63
2018-03-22T23:57:21.351Z,4.65
2018-03-22T23:59:56.549Z,4.57
